Time;durP1;ratioP1;P1;durP2;ratioP2;P2;SDS_P1;SDS_P2;PMS_P1;PMS_P2;Temp;Humidity;BMP_temperature;BMP_pressure;BME280_temperature;BME280_humidity;BME280_pressure;Samples;Min_cycle;Max_cycle;Signal;HPM_P1;HPM_P2
2022/11/24 00:01:40;;;;;;;10.18;4.47;;;7.00;99.90;;;;;;5047458;28;20033;-83
2022/11/24 00:04:06;;;;;;;12.40;4.22;;;6.70;99.90;;;;;;5068555;28;20040;-83
2022/11/24 00:06:33;;;;;;;8.13;3.70;;;6.30;99.90;;;;;;5078736;28;20043;-83
2022/11/24 00:08:59;;;;;;;9.30;4.20;;;6.30;99.90;;;;;;5062158;28;20040;-83
2022/11/24 00:11:31;;;;;;;7.97;4.05;;;6.20;99.90;;;;;;5096736;28;20039;-83
2022/11/24 00:13:58;;;;;;;18.23;4.47;;;6.30;99.90;;;;;;5073225;28;20064;-83
2022/11/24 00:16:32;;;;;;;16.15;4.95;;;7.70;99.90;;;;;;5061821;28;20066;-84
2022/11/24 00:18:59;;;;;;;8.48;4.45;;;7.10;99.90;;;;;;5067806;28;20102;-83
2022/11/24 00:21:26;;;;;;;15.55;5.25;;;6.10;99.90;;;;;;5058222;28;20119;-84
2022/11/24 00:23:52;;;;;;;19.13;5.00;;;6.10;99.90;;;;;;5086099;28;20491;-84
2022/11/24 00:26:30;;;;;;;12.05;4.13;;;7.10;99.90;;;;;;5078629;28;20040;-83
2022/11/24 00:28:58;;;;;;;10.73;4.22;;;6.20;99.90;;;;;;5038242;28;20569;-84
2022/11/24 00:31:34;;;;;;;10.98;3.30;;;6.20;99.90;;;;;;5038459;28;20045;-84
2022/11/24 00:34:02;;;;;;;7.88;3.50;;;6.20;99.90;;;;;;5038401;28;20405;-84
2022/11/24 00:36:30;;;;;;;13.40;4.10;;;6.20;99.90;;;;;;5078306;28;20052;-82
2022/11/24 00:39:16;;;;;;;15.63;4.65;;;7.50;99.90;;;;;;5077730;28;20090;-82
2022/11/24 00:41:42;;;;;;;6.35;3.03;;;6.20;99.90;;;;;;5078087;28;20040;-82
2022/11/24 00:44:08;;;;;;;11.27;3.30;;;6.20;99.90;;;;;;5061405;28;20083;-82
2022/11/24 00:46:34;;;;;;;11.32;3.47;;;7.30;99.90;;;;;;5077977;28;20036;-82
2022/11/24 00:49:00;;;;;;;14.02;5.20;;;7.00;99.90;;;;;;5078289;28;20044;-82
2022/11/24 00:51:29;;;;;;;13.43;4.00;;;7.30;99.90;;;;;;5077843;28;20126;-82
2022/11/24 00:53:57;;;;;;;13.40;3.63;;;6.30;99.90;;;;;;5042141;28;20044;-82
2022/11/24 00:56:24;;;;;;;9.63;3.15;;;6.30;99.90;;;;;;5024965;28;20444;-82
2022/11/24 00:58:50;;;;;;;10.38;3.60;;;6.30;99.90;;;;;;5057377;28;20484;-82
2022/11/24 01:01:22;;;;;;;10.88;3.25;;;7.00;99.90;;;;;;5061439;28;20032;-82
2022/11/24 01:03:48;;;;;;;10.98;3.67;;;6.30;99.90;;;;;;5061198;28;20169;-82
2022/11/24 01:06:16;;;;;;;8.57;3.53;;;6.30;99.90;;;;;;5061400;28;20036;-82
2022/11/24 01:08:43;;;;;;;16.35;3.85;;;7.40;99.90;;;;;;5061180;28;20059;-82
2022/11/24 01:11:16;;;;;;;18.02;4.50;;;6.30;99.90;;;;;;5095807;28;20048;-83
2022/11/24 01:13:44;;;;;;;12.65;3.38;;;6.40;99.90;;;;;;5061211;28;20105;-83
2022/11/24 01:16:22;;;;;;;12.15;2.97;;;7.70;99.90;;;;;;5075329;28;20123;-83
2022/11/24 01:18:48;;;;;;;15.82;4.47;;;6.60;99.90;;;;;;5074281;28;20431;-83
2022/11/24 01:21:15;;;;;;;10.68;3.13;;;7.40;99.90;;;;;;5040558;28;20535;-84
2022/11/24 01:23:41;;;;;;;7.63;2.95;;;7.40;99.90;;;;;;5040421;28;20063;-84
2022/11/24 01:26:09;;;;;;;11.60;3.15;;;7.00;99.90;;;;;;5063975;28;20032;-82
2022/11/24 01:28:35;;;;;;;11.15;3.00;;;8.80;99.90;;;;;;5060545;28;20475;-82
2022/11/24 01:31:04;;;;;;;6.93;3.20;;;8.10;99.90;;;;;;5095224;28;20032;-82
2022/11/24 01:33:31;;;;;;;7.63;2.83;;;7.40;99.90;;;;;;5058950;28;20032;-82
2022/11/24 01:35:57;;;;;;;11.10;3.13;;;6.80;99.90;;;;;;5061459;28;20083;-82
2022/11/24 01:38:24;;;;;;;14.00;3.40;;;8.00;99.90;;;;;;5059976;28;20048;-82
2022/11/24 01:41:06;;;;;;;12.38;2.95;;;7.90;99.90;;;;;;5067293;28;20044;-82
2022/11/24 01:43:32;;;;;;;14.07;3.42;;;6.80;99.90;;;;;;5046317;28;20071;-84
2022/11/24 01:46:04;;;;;;;7.55;2.80;;;6.80;99.90;;;;;;5059988;28;20451;-84
2022/11/24 01:48:37;;;;;;;15.13;3.15;;;7.80;99.90;;;;;;5076939;28;20054;-84
2022/11/24 01:51:16;;;;;;;12.13;3.65;;;6.90;99.90;;;;;;5076502;28;20047;-83
2022/11/24 01:53:50;;;;;;;7.30;2.50;;;7.20;99.90;;;;;;5048541;28;20044;-84
2022/11/24 01:56:15;;;;;;;16.33;2.70;;;8.30;99.90;;;;;;5056575;28;20043;-84
2022/11/24 01:58:43;;;;;;;9.75;2.30;;;6.90;99.90;;;;;;5040106;28;20032;-84
2022/11/24 02:01:09;;;;;;;11.48;3.53;;;7.50;99.90;;;;;;5040318;28;20044;-82
2022/11/24 02:03:38;;;;;;;13.93;2.92;;;7.00;99.90;;;;;;5063385;28;20097;-81
2022/11/24 02:06:18;;;;;;;12.25;3.03;;;6.90;99.90;;;;;;5076423;28;20395;-82
2022/11/24 02:09:11;;;;;;;5.60;1.85;;;6.90;99.90;;;;;;5059753;28;20184;-82
2022/11/24 02:11:39;;;;;;;9.43;2.42;;;7.00;99.90;;;;;;5082497;28;20040;-82
2022/11/24 02:14:08;;;;;;;7.10;2.80;;;7.10;99.90;;;;;;5055776;28;20101;-82
2022/11/24 02:16:35;;;;;;;5.28;2.30;;;7.10;99.90;;;;;;5039304;28;20427;-83
2022/11/24 02:19:10;;;;;;;10.18;2.97;;;7.10;99.90;;;;;;5039350;28;20499;-83
2022/11/24 02:21:35;;;;;;;8.55;2.22;;;7.10;99.90;;;;;;5070794;28;20406;-83
2022/11/24 02:24:40;;;;;;;8.13;2.25;;;7.10;99.90;;;;;;5076066;28;20040;-83
2022/11/24 02:27:06;;;;;;;10.57;2.20;;;6.90;99.90;;;;;;4922225;29;20129;-83
2022/11/24 02:29:32;;;;;;;17.83;2.90;;;6.80;99.90;;;;;;5018571;28;20095;-83
2022/11/24 02:32:02;;;;;;;11.18;2.60;;;7.50;99.90;;;;;;5036256;28;20048;-83
2022/11/24 02:34:28;;;;;;;5.60;1.80;;;;;;;;;;5035477;28;20179;-84
2022/11/24 02:36:54;;;;;;;11.88;3.20;;;6.80;99.90;;;;;;5019624;28;20060;-84
2022/11/24 02:39:19;;;;;;;7.00;2.25;;;7.40;99.90;;;;;;5019878;28;20419;-84
2022/11/24 02:41:55;;;;;;;8.60;1.98;;;8.10;99.90;;;;;;5041799;28;20036;-84
2022/11/24 02:44:25;;;;;;;7.72;3.13;;;6.80;99.90;;;;;;5075669;28;20040;-84
2022/11/24 02:47:08;;;;;;;7.82;2.05;;;7.40;99.90;;;;;;5075876;28;20032;-84
2022/11/24 02:49:34;;;;;;;9.95;1.83;;;6.80;99.90;;;;;;5076712;28;20079;-84
2022/11/24 02:52:01;;;;;;;10.65;2.75;;;8.00;99.90;;;;;;5042766;28;20506;-84
2022/11/24 02:54:27;;;;;;;11.55;2.72;;;;;;;;;;5044693;28;20055;-84
2022/11/24 02:56:53;;;;;;;5.88;2.30;;;6.90;99.90;;;;;;5055660;28;20055;-84
2022/11/24 02:59:19;;;;;;;6.30;2.30;;;7.60;99.90;;;;;;5055928;28;20519;-84
2022/11/24 03:01:44;;;;;;;7.47;2.38;;;6.90;99.90;;;;;;5075835;28;20046;-84
2022/11/24 03:04:10;;;;;;;10.40;2.83;;;7.00;99.90;;;;;;5058986;28;20036;-84
2022/11/24 03:06:36;;;;;;;11.35;2.50;;;7.00;99.90;;;;;;5075120;28;20471;-83
2022/11/24 03:09:02;;;;;;;8.25;2.33;;;8.00;99.90;;;;;;5057443;28;20101;-82
2022/11/24 03:11:28;;;;;;;5.28;1.73;;;6.90;99.90;;;;;;5041644;28;20051;-82
2022/11/24 03:13:54;;;;;;;18.52;3.17;;;6.90;99.90;;;;;;5025997;28;20040;-83
2022/11/24 03:16:20;;;;;;;9.95;2.60;;;7.40;99.90;;;;;;5072434;28;20059;-82
2022/11/24 03:18:47;;;;;;;10.30;2.30;;;8.20;99.90;;;;;;5038062;28;20492;-82
2022/11/24 03:21:13;;;;;;;10.95;1.70;;;;;;;;;;5033090;28;20185;-82
2022/11/24 03:23:39;;;;;;;7.30;2.45;;;6.80;99.90;;;;;;5075131;28;20391;-84
2022/11/24 03:26:09;;;;;;;7.75;1.60;;;7.30;99.90;;;;;;5076163;28;20044;-84
2022/11/24 03:28:35;;;;;;;8.43;2.50;;;8.30;99.90;;;;;;5072684;28;20054;-84
2022/11/24 03:31:01;;;;;;;9.07;2.17;;;6.80;99.90;;;;;;5058529;28;20040;-84
2022/11/24 03:33:27;;;;;;;11.88;2.15;;;6.80;99.90;;;;;;5042398;28;20101;-85
2022/11/24 03:35:53;;;;;;;8.23;2.53;;;6.80;99.90;;;;;;5059007;28;20056;-84
2022/11/24 03:38:19;;;;;;;7.43;2.47;;;6.90;99.90;;;;;;5055722;28;20540;-85
2022/11/24 03:40:44;;;;;;;13.30;2.10;;;7.70;99.90;;;;;;5055646;28;20074;-84
2022/11/24 03:43:10;;;;;;;9.35;1.80;;;7.80;99.90;;;;;;5039440;28;20040;-83
2022/11/24 03:45:36;;;;;;;11.93;1.95;;;7.50;99.90;;;;;;5057963;28;20036;-83
2022/11/24 03:48:01;;;;;;;11.15;2.88;;;7.00;99.90;;;;;;5054618;28;20041;-83
2022/11/24 03:50:27;;;;;;;6.22;1.83;;;6.70;99.90;;;;;;5055155;28;20048;-83
2022/11/24 03:52:53;;;;;;;10.25;2.20;;;7.50;99.90;;;;;;5039338;28;20098;-83
2022/11/24 03:55:18;;;;;;;14.65;2.05;;;8.20;99.90;;;;;;5038308;28;20048;-82
2022/11/24 03:57:44;;;;;;;8.75;2.30;;;7.10;99.90;;;;;;5025043;28;20082;-83
2022/11/24 04:00:10;;;;;;;14.57;2.58;;;6.60;99.90;;;;;;5061105;28;20064;-83
2022/11/24 04:02:37;;;;;;;11.98;2.10;;;6.70;99.90;;;;;;5045839;28;20055;-83
2022/11/24 04:05:03;;;;;;;6.80;2.05;;;6.60;99.90;;;;;;5061817;28;20048;-83
2022/11/24 04:07:29;;;;;;;11.60;2.53;;;6.60;99.90;;;;;;5062218;28;20040;-82
2022/11/24 04:09:55;;;;;;;7.82;2.10;;;6.60;99.90;;;;;;5078282;28;20467;-83
2022/11/24 04:15:05;;;;;;;11.63;2.88;;;6.70;99.90;;;;;;5058424;28;20048;-84
2022/11/24 04:17:30;;;;;;;9.13;1.90;;;6.60;99.90;;;;;;5038562;28;20044;-84
2022/11/24 04:19:56;;;;;;;8.10;2.15;;;7.60;99.90;;;;;;5052707;28;20059;-84
2022/11/24 04:22:22;;;;;;;8.10;2.15;;;6.50;99.90;;;;;;5025405;28;20051;-84
2022/11/24 04:24:48;;;;;;;7.72;1.77;;;7.80;99.90;;;;;;5032420;28;20033;-84
2022/11/24 04:27:13;;;;;;;6.07;1.85;;;8.10;99.90;;;;;;5021864;28;20075;-84
2022/11/24 04:29:39;;;;;;;9.32;2.65;;;7.50;99.90;;;;;;5060393;28;20090;-83
2022/11/24 04:32:05;;;;;;;7.38;1.60;;;5.30;99.90;;;;;;5052654;28;20040;-83
2022/11/24 04:34:30;;;;;;;11.43;1.90;;;6.50;99.90;;;;;;5054428;28;20049;-82
2022/11/24 04:36:56;;;;;;;10.93;1.80;;;7.60;99.90;;;;;;5067216;28;20056;-82
2022/11/24 04:39:22;;;;;;;8.73;1.77;;;6.50;99.90;;;;;;5041220;28;20041;-83
2022/11/24 04:41:48;;;;;;;9.68;2.08;;;6.40;99.90;;;;;;5039282;28;20098;-83
2022/11/24 04:44:14;;;;;;;6.07;1.98;;;7.20;99.90;;;;;;5043873;28;20055;-82
2022/11/24 04:46:39;;;;;;;7.65;1.75;;;6.30;99.90;;;;;;5040788;28;20040;-82
2022/11/24 04:49:05;;;;;;;8.45;1.55;;;6.30;99.90;;;;;;5073894;28;20040;-83
2022/11/24 04:51:31;;;;;;;5.57;1.50;;;6.20;99.90;;;;;;5053434;28;20044;-83
2022/11/24 04:53:57;;;;;;;7.00;2.00;;;7.50;99.90;;;;;;5053284;28;20584;-82
2022/11/24 04:56:23;;;;;;;9.05;2.08;;;6.70;99.90;;;;;;5038120;28;20041;-82
2022/11/24 04:58:48;;;;;;;9.02;1.92;;;7.00;99.90;;;;;;5061941;28;20045;-83
2022/11/24 05:01:14;;;;;;;16.05;2.65;;;7.40;99.90;;;;;;5036366;28;20037;-83
2022/11/24 05:03:40;;;;;;;8.63;1.75;;;6.10;99.90;;;;;;5055060;28;20094;-84
2022/11/24 05:06:07;;;;;;;10.63;2.60;;;6.10;99.90;;;;;;5054098;28;20045;-84
2022/11/24 05:08:34;;;;;;;7.30;1.80;;;6.10;99.90;;;;;;5066017;28;20118;-84
2022/11/24 05:11:04;;;;;;;8.93;1.95;;;6.40;99.90;;;;;;5036734;28;20049;-84
2022/11/24 05:13:30;;;;;;;6.20;1.55;;;5.90;99.90;;;;;;5087831;28;20041;-84
2022/11/24 05:15:56;;;;;;;8.48;3.38;;;;;;;;;;5053930;28;20485;-84
2022/11/24 05:18:22;;;;;;;8.25;2.22;;;5.90;99.90;;;;;;5054051;28;20044;-84
2022/11/24 05:20:48;;;;;;;11.75;2.42;;;7.40;99.90;;;;;;5053536;28;20496;-84
2022/11/24 05:23:15;;;;;;;8.40;2.67;;;6.30;99.90;;;;;;5068533;28;20045;-85
2022/11/24 05:25:41;;;;;;;4.93;1.27;;;5.90;99.90;;;;;;5053548;28;20048;-84
2022/11/24 05:28:10;;;;;;;8.27;1.92;;;6.20;99.90;;;;;;5057073;28;20040;-84
2022/11/24 05:30:39;;;;;;;9.63;1.67;;;5.90;99.90;;;;;;5073530;28;20040;-84
2022/11/24 05:33:17;;;;;;;8.05;2.00;;;6.20;99.90;;;;;;5040438;28;20036;-84
2022/11/24 05:35:50;;;;;;;5.72;1.90;;;6.90;99.90;;;;;;5073637;28;20052;-84
2022/11/24 05:38:17;;;;;;;7.80;2.10;;;5.90;99.90;;;;;;5057056;28;20044;-84
2022/11/24 05:40:43;;;;;;;9.18;2.20;;;6.80;99.90;;;;;;5059611;28;20110;-84
2022/11/24 05:43:14;;;;;;;8.13;2.08;;;6.50;99.90;;;;;;5055929;28;20041;-84
2022/11/24 05:45:39;;;;;;;10.75;1.88;;;7.30;99.90;;;;;;5056374;28;20040;-84
2022/11/24 05:48:12;;;;;;;9.35;2.15;;;6.50;99.90;;;;;;5073157;28;20040;-84
2022/11/24 05:50:38;;;;;;;6.35;2.33;;;6.60;99.90;;;;;;5071005;28;20087;-83
2022/11/24 05:53:05;;;;;;;7.07;2.28;;;5.80;99.90;;;;;;5053905;28;20075;-83
2022/11/24 05:55:31;;;;;;;10.82;3.63;;;6.00;99.90;;;;;;5037178;28;20125;-83
2022/11/24 05:57:59;;;;;;;6.75;1.98;;;6.00;99.90;;;;;;5053166;28;20052;-83
2022/11/24 06:00:25;;;;;;;9.10;1.83;;;6.00;99.90;;;;;;5062005;28;20107;-83
2022/11/24 06:02:51;;;;;;;7.20;2.00;;;7.30;99.90;;;;;;5058052;28;20481;-83
2022/11/24 06:05:16;;;;;;;8.02;2.13;;;6.20;99.90;;;;;;5036850;28;20047;-83
2022/11/24 06:07:42;;;;;;;7.05;1.55;;;6.10;99.90;;;;;;5036942;28;20044;-84
2022/11/24 06:10:08;;;;;;;8.02;1.85;;;6.10;99.90;;;;;;5019766;28;20055;-83
2022/11/24 06:12:35;;;;;;;5.25;1.67;;;6.20;99.90;;;;;;5046299;28;20068;-82
2022/11/24 06:15:00;;;;;;;9.60;1.65;;;6.40;99.90;;;;;;5056046;28;20094;-82
2022/11/24 06:17:27;;;;;;;6.50;1.60;;;;;;;;;;5055786;28;20044;-82
2022/11/24 06:19:53;;;;;;;6.13;1.77;;;6.30;99.90;;;;;;5072527;28;20045;-82
2022/11/24 06:22:19;;;;;;;10.38;2.28;;;;;;;;;;5045686;28;20047;-82
2022/11/24 06:24:45;;;;;;;8.85;1.90;;;6.40;99.90;;;;;;5044466;28;20484;-83
2022/11/24 06:27:12;;;;;;;7.18;1.60;;;7.20;99.90;;;;;;5052609;28;20055;-83
2022/11/24 06:29:38;;;;;;;5.55;1.40;;;6.70;99.90;;;;;;5069498;28;20128;-83
2022/11/24 06:32:04;;;;;;;5.95;1.60;;;6.30;99.90;;;;;;5069229;28;20041;-83
2022/11/24 06:34:30;;;;;;;4.95;2.10;;;6.30;99.90;;;;;;5086014;28;20119;-84
2022/11/24 06:36:56;;;;;;;6.18;1.90;;;6.30;99.90;;;;;;5076331;28;20084;-84
2022/11/24 06:39:21;;;;;;;4.75;1.73;;;6.30;99.90;;;;;;5076079;28;20036;-84
2022/11/24 06:41:52;;;;;;;4.85;1.73;;;6.60;99.90;;;;;;5042680;28;20036;-84
2022/11/24 06:44:18;;;;;;;9.07;2.03;;;7.70;99.90;;;;;;5039383;28;20128;-83
2022/11/24 06:46:44;;;;;;;4.35;2.05;;;7.60;99.90;;;;;;5038986;28;20127;-83
2022/11/24 06:49:10;;;;;;;4.50;1.73;;;6.50;99.90;;;;;;5038768;28;20062;-83
2022/11/24 06:51:36;;;;;;;7.22;1.30;;;6.50;99.90;;;;;;5038971;28;20036;-83
2022/11/24 06:54:05;;;;;;;7.75;1.73;;;7.30;99.90;;;;;;5058599;28;20047;-84
2022/11/24 06:56:31;;;;;;;6.28;1.70;;;6.50;99.90;;;;;;5065792;28;20048;-83
2022/11/24 06:58:57;;;;;;;10.00;1.55;;;7.80;99.90;;;;;;5075900;28;20036;-83
2022/11/24 07:01:27;;;;;;;6.07;2.03;;;6.60;99.90;;;;;;5059003;28;20036;-84
2022/11/24 07:03:55;;;;;;;5.72;1.83;;;6.40;99.90;;;;;;5059277;28;20043;-83
2022/11/24 07:06:22;;;;;;;10.68;1.77;;;7.60;99.90;;;;;;5039201;28;20037;-84
2022/11/24 07:08:48;;;;;;;8.15;1.83;;;8.20;99.90;;;;;;5089273;28;20044;-83
2022/11/24 07:11:18;;;;;;;5.85;1.92;;;6.60;99.90;;;;;;5039262;28;20047;-83
2022/11/24 07:13:44;;;;;;;4.13;1.40;;;6.40;99.90;;;;;;5074724;28;20078;-83
2022/11/24 07:16:16;;;;;;;4.35;1.75;;;6.30;99.90;;;;;;5046935;28;20037;-84
2022/11/24 07:18:43;;;;;;;7.20;2.08;;;6.30;99.90;;;;;;5038600;28;20127;-84
2022/11/24 07:21:10;;;;;;;4.30;1.67;;;6.30;99.90;;;;;;5072065;28;20055;-85
2022/11/24 07:23:36;;;;;;;13.90;2.20;;;6.20;99.90;;;;;;5058117;28;20036;-84
2022/11/24 07:26:03;;;;;;;6.10;1.90;;;6.20;99.90;;;;;;5041720;28;20040;-84
2022/11/24 07:28:30;;;;;;;7.38;2.75;;;7.30;99.90;;;;;;5072426;28;20047;-84
2022/11/24 07:31:03;;;;;;;8.23;1.77;;;6.10;99.90;;;;;;5055839;28;20118;-84
2022/11/24 07:33:28;;;;;;;14.98;2.85;;;6.20;99.90;;;;;;5027595;28;20083;-84
2022/11/24 07:35:58;;;;;;;7.72;1.85;;;7.30;99.90;;;;;;5048504;28;20084;-84
2022/11/24 07:38:24;;;;;;;9.27;2.28;;;6.50;99.90;;;;;;5056203;28;20102;-85
2022/11/24 07:40:50;;;;;;;12.82;2.97;;;6.40;99.90;;;;;;5039329;28;20040;-85
2022/11/24 07:43:16;;;;;;;10.88;3.10;;;6.90;99.90;;;;;;5039581;28;20029;-84
2022/11/24 07:45:42;;;;;;;8.65;3.08;;;6.40;99.90;;;;;;5039081;28;20481;-85
2022/11/24 07:48:09;;;;;;;2.63;1.70;;;6.40;99.90;;;;;;5050083;28;20079;-84
2022/11/24 07:50:35;;;;;;;15.43;2.67;;;8.20;99.90;;;;;;5057457;28;20119;-84
2022/11/24 07:53:03;;;;;;;6.50;2.15;;;7.40;99.90;;;;;;5038871;28;20128;-84
2022/11/24 07:55:29;;;;;;;6.13;2.42;;;7.70;99.90;;;;;;5089169;28;20049;-84
2022/11/24 07:57:59;;;;;;;5.28;2.45;;;6.60;99.90;;;;;;5056692;28;20124;-84
2022/11/24 08:00:26;;;;;;;8.63;2.80;;;7.50;99.90;;;;;;5061530;28;20041;-85
2022/11/24 08:02:51;;;;;;;7.85;2.70;;;6.70;99.90;;;;;;5038228;28;20119;-85
2022/11/24 08:05:17;;;;;;;12.43;2.58;;;7.80;99.90;;;;;;5038624;28;20125;-84
2022/11/24 08:07:43;;;;;;;6.45;2.53;;;6.70;99.90;;;;;;5022546;28;20044;-84
2022/11/24 08:10:08;;;;;;;9.00;2.78;;;7.20;99.90;;;;;;5027132;28;20077;-83
2022/11/24 08:12:34;;;;;;;9.15;2.65;;;6.70;99.90;;;;;;5074973;28;20040;-83
2022/11/24 08:15:00;;;;;;;5.95;2.40;;;6.80;99.90;;;;;;5058600;28;20094;-84
2022/11/24 08:17:27;;;;;;;7.82;2.80;;;6.90;99.90;;;;;;5052892;28;20115;-84
2022/11/24 08:19:53;;;;;;;9.13;2.90;;;6.90;99.90;;;;;;5055271;28;20047;-83
2022/11/24 08:22:19;;;;;;;9.35;2.80;;;7.00;99.90;;;;;;5056447;28;20029;-84
2022/11/24 08:24:47;;;;;;;10.05;2.33;;;7.10;99.90;;;;;;5005763;28;20044;-84
2022/11/24 08:27:14;;;;;;;8.55;2.72;;;7.40;99.90;;;;;;5054435;28;20128;-84
2022/11/24 08:29:41;;;;;;;9.15;2.97;;;7.60;99.90;;;;;;5040329;28;20400;-84
2022/11/24 08:32:07;;;;;;;6.15;2.30;;;8.10;99.90;;;;;;5005267;28;20045;-83
2022/11/24 08:34:33;;;;;;;6.43;2.58;;;8.50;99.90;;;;;;5040079;28;20089;-83
2022/11/24 08:36:59;;;;;;;11.32;3.08;;;9.00;99.90;;;;;;5064878;28;20389;-83
2022/11/24 08:39:24;;;;;;;7.20;2.50;;;9.50;99.90;;;;;;5046192;28;20051;-83
2022/11/24 08:41:50;;;;;;;6.38;2.05;;;9.70;99.90;;;;;;5075064;28;20032;-84
2022/11/24 08:44:17;;;;;;;5.68;2.33;;;9.70;99.90;;;;;;5060174;28;20111;-84
2022/11/24 08:46:44;;;;;;;4.90;1.92;;;9.40;99.90;;;;;;5078647;28;20067;-84
2022/11/24 08:49:10;;;;;;;6.22;2.00;;;9.10;99.90;;;;;;5050927;23;20045;-77
2022/11/24 08:51:36;;;;;;;7.70;1.95;;;8.80;99.90;;;;;;5061768;28;20049;-77
2022/11/24 08:54:02;;;;;;;7.00;1.88;;;8.60;99.90;;;;;;5083262;28;20040;-77
2022/11/24 08:56:30;;;;;;;5.85;1.88;;;8.70;99.90;;;;;;5026860;28;20377;-78
2022/11/24 08:58:57;;;;;;;2.47;1.60;;;9.00;99.90;;;;;;5016147;28;20049;-78
2022/11/24 09:01:23;;;;;;;6.60;1.88;;;9.30;99.90;;;;;;5039925;28;20041;-78
2022/11/24 09:03:49;;;;;;;5.50;1.90;;;9.30;99.90;;;;;;5032606;28;20040;-78
2022/11/24 09:06:17;;;;;;;5.93;2.60;;;9.30;99.90;;;;;;5050913;28;20069;-78
2022/11/24 09:08:42;;;;;;;7.47;2.17;;;9.40;99.90;;;;;;5077331;28;20048;-78
2022/11/24 09:11:12;;;;;;;5.72;1.55;;;9.70;99.90;;;;;;5051015;28;20076;-78
2022/11/24 09:13:38;;;;;;;5.50;1.95;;;9.80;99.90;;;;;;5035957;28;20041;-82
2022/11/24 09:16:07;;;;;;;5.68;1.63;;;9.90;99.90;;;;;;5035904;28;20546;-82
2022/11/24 09:18:32;;;;;;;2.97;1.67;;;10.00;99.90;;;;;;5050203;28;20048;-82
2022/11/24 09:21:14;;;;;;;8.75;1.70;;;10.00;99.90;;;;;;5030997;28;20039;-82
2022/11/24 09:23:41;;;;;;;4.35;1.35;;;9.80;99.90;;;;;;5022257;28;20149;-82
2022/11/24 09:26:12;;;;;;;2.97;1.75;;;9.90;99.90;;;;;;5042139;28;20044;-82
2022/11/24 09:28:39;;;;;;;5.07;1.55;;;9.90;99.90;;;;;;5061118;28;20120;-82
2022/11/24 09:31:08;;;;;;;5.00;1.92;;;10.00;99.90;;;;;;5040726;28;20119;-77
2022/11/24 09:33:34;;;;;;;3.67;1.23;;;9.70;99.90;;;;;;5047782;28;20052;-77
2022/11/24 09:36:00;;;;;;;2.80;1.10;;;9.70;99.90;;;;;;5036232;28;20114;-77
2022/11/24 09:38:26;;;;;;;2.78;1.27;;;9.70;99.90;;;;;;5037718;28;20056;-77
2022/11/24 09:40:52;;;;;;;4.50;1.42;;;9.60;99.90;;;;;;5039037;28;20044;-77
2022/11/24 09:43:38;;;;;;;2.80;1.25;;;9.70;99.90;;;;;;5024630;28;20090;-77
2022/11/24 09:46:21;;;;;;;2.40;1.10;;;9.90;99.90;;;;;;5072474;28;20102;-77
2022/11/24 09:48:54;;;;;;;5.57;1.35;;;10.00;99.90;;;;;;5053848;28;20140;-77
2022/11/24 09:51:24;;;;;;;5.97;1.27;;;10.40;99.90;;;;;;5065774;28;20041;-77
2022/11/24 09:53:59;;;;;;;2.88;1.08;;;10.10;99.90;;;;;;5036069;28;20124;-78
2022/11/24 09:56:32;;;;;;;2.30;1.30;;;10.50;99.90;;;;;;5036062;28;20053;-78
2022/11/24 09:59:17;;;;;;;3.08;1.10;;;10.60;99.90;;;;;;5036134;28;20136;-78
2022/11/24 10:01:45;;;;;;;2.25;1.17;;;10.60;99.90;;;;;;5016200;28;20044;-77
2022/11/24 10:04:37;;;;;;;2.95;1.15;;;10.50;99.90;;;;;;5032672;28;20038;-83
2022/11/24 10:07:32;;;;;;;3.05;1.30;;;10.50;99.90;;;;;;5056803;28;20045;-80
2022/11/24 10:10:03;;;;;;;5.35;1.17;;;10.80;99.90;;;;;;5035858;28;20040;-80
2022/11/24 10:13:04;;;;;;;3.53;1.10;;;11.20;99.90;;;;;;5049467;28;20472;-80
2022/11/24 10:15:29;;;;;;;4.55;2.22;;;11.30;99.90;;;;;;5065790;28;20045;-80
2022/11/24 10:18:16;;;;;;;4.13;1.20;;;11.10;99.90;;;;;;5034939;28;20044;-80
2022/11/24 10:20:48;;;;;;;6.65;1.60;;;10.90;99.90;;;;;;5029206;28;20471;-83
2022/11/24 10:23:40;;;;;;;3.35;1.30;;;10.90;99.90;;;;;;5036005;28;20040;-83
2022/11/24 10:26:21;;;;;;;4.65;1.58;;;10.90;99.90;;;;;;5036314;28;20384;-83
2022/11/24 10:28:55;;;;;;;3.45;1.27;;;11.00;99.90;;;;;;5052638;28;20048;-84
2022/11/24 10:31:34;;;;;;;3.55;1.52;;;11.20;99.90;;;;;;5035595;28;20116;-84
2022/11/24 10:34:15;;;;;;;6.97;1.30;;;11.40;99.90;;;;;;5056541;28;20445;-84
2022/11/24 10:36:56;;;;;;;3.45;1.48;;;12.40;99.90;;;;;;5059508;28;20072;-82
2022/11/24 10:39:45;;;;;;;3.83;1.45;;;13.00;99.90;;;;;;5048172;28;20102;-83
2022/11/24 10:42:35;;;;;;;5.97;1.55;;;13.20;99.90;;;;;;5041654;28;20029;-85
2022/11/24 10:45:30;;;;;;;2.58;0.95;;;13.20;99.90;;;;;;5064901;28;20043;-85
2022/11/24 10:47:57;;;;;;;2.67;1.23;;;13.60;99.90;;;;;;4994992;28;20057;-85
2022/11/24 10:50:27;;;;;;;3.53;1.15;;;14.20;99.90;;;;;;5057656;28;20041;-86
2022/11/24 10:53:02;;;;;;;1.30;0.77;;;14.60;99.90;;;;;;5026847;28;20044;-82
2022/11/24 10:55:56;;;;;;;6.05;1.17;;;14.90;99.90;;;;;;5037967;28;20466;-82
2022/11/24 10:58:25;;;;;;;3.67;1.02;;;15.40;99.90;;;;;;5045752;28;20044;-81
2022/11/24 11:00:52;;;;;;;8.38;2.03;;;15.60;99.90;;;;;;5054528;28;20094;-82
2022/11/24 11:03:21;;;;;;;5.50;1.08;;;15.80;99.90;;;;;;5018114;28;20037;-81
2022/11/24 11:05:52;;;;;;;5.40;2.22;;;16.10;99.90;;;;;;5028376;28;20036;-81
2022/11/24 11:08:26;;;;;;;4.97;2.38;;;16.40;99.90;;;;;;5033603;28;20036;-82
2022/11/24 11:11:27;;;;;;;4.45;1.35;;;16.60;99.90;;;;;;5045335;28;20115;-81
2022/11/24 11:14:09;;;;;;;4.97;1.48;;;16.90;99.90;;;;;;5038034;28;20045;-82
2022/11/24 11:16:51;;;;;;;6.75;1.98;;;16.80;99.90;;;;;;5044754;28;20052;-82
2022/11/24 11:19:36;;;;;;;2.75;1.35;;;16.30;99.90;;;;;;5039235;28;20045;-82
2022/11/24 11:22:04;;;;;;;3.83;1.50;;;15.40;99.90;;;;;;5049549;28;20099;-82
2022/11/24 11:24:31;;;;;;;2.92;1.10;;;14.70;99.90;;;;;;5022561;28;20044;-81
2022/11/24 11:27:14;;;;;;;2.22;1.00;;;14.10;99.90;;;;;;5039593;28;20049;-82
2022/11/24 11:29:39;;;;;;;6.85;1.70;;;13.50;99.90;;;;;;5040428;28;20053;-81
2022/11/24 11:32:23;;;;;;;4.20;1.75;;;13.30;99.90;;;;;;5061800;28;20048;-81
2022/11/24 11:34:51;;;;;;;5.95;1.92;;;13.10;99.90;;;;;;5052922;28;20044;-81
2022/11/24 11:37:18;;;;;;;3.88;1.00;;;12.90;99.90;;;;;;5059026;28;20095;-81
2022/11/24 11:39:52;;;;;;;4.22;1.33;;;12.70;99.90;;;;;;5058817;28;20048;-81
2022/11/24 11:42:24;;;;;;;3.40;1.40;;;12.50;99.90;;;;;;5059124;28;20127;-82
2022/11/24 11:44:52;;;;;;;1.92;1.30;;;12.20;99.90;;;;;;5045452;28;20555;-85
2022/11/24 11:47:43;;;;;;;6.07;1.40;;;12.30;99.90;;;;;;5056948;28;20033;-85
2022/11/24 11:50:19;;;;;;;2.60;1.10;;;12.20;99.90;;;;;;5044325;28;20056;-85
2022/11/24 11:53:11;;;;;;;3.00;1.20;;;12.10;99.90;;;;;;5038456;28;20106;-85
2022/11/24 11:55:42;;;;;;;6.10;1.77;;;12.10;99.90;;;;;;5038679;28;20049;-81
2022/11/24 11:58:37;;;;;;;2.08;1.30;;;12.00;99.90;;;;;;5038721;28;20044;-81
2022/11/24 12:01:30;;;;;;;5.35;1.60;;;11.90;99.90;;;;;;5035711;28;20401;-81
2022/11/24 12:04:08;;;;;;;3.35;1.08;;;12.00;99.90;;;;;;5055324;28;20048;-81
2022/11/24 12:06:49;;;;;;;14.10;1.85;;;12.10;99.90;;;;;;5038785;28;20424;-81
2022/11/24 12:09:26;;;;;;;7.57;1.58;;;12.00;99.90;;;;;;5037325;28;20037;-80
2022/11/24 12:12:20;;;;;;;4.20;1.35;;;11.90;99.90;;;;;;5045180;28;20033;-81
2022/11/24 12:15:09;;;;;;;2.88;1.88;;;11.70;99.90;;;;;;5063738;28;20037;-80
2022/11/24 12:17:46;;;;;;;2.22;1.20;;;11.60;99.90;;;;;;5037565;28;20044;-85
2022/11/24 12:20:40;;;;;;;6.63;1.40;;;11.50;99.90;;;;;;5038277;28;20044;-85
2022/11/24 12:23:30;;;;;;;4.88;1.35;;;11.40;99.90;;;;;;5037882;28;20040;-85
2022/11/24 12:26:03;;;;;;;3.25;1.05;;;11.40;99.90;;;;;;5055789;28;20041;-85
2022/11/24 12:28:36;;;;;;;4.35;1.50;;;11.40;99.90;;;;;;5037541;28;20127;-85
2022/11/24 12:31:09;;;;;;;3.63;1.00;;;11.60;99.90;;;;;;5021454;28;20059;-85
2022/11/24 12:33:50;;;;;;;7.45;1.88;;;11.80;99.90;;;;;;5037833;28;20051;-82
2022/11/24 12:36:34;;;;;;;5.15;1.85;;;12.00;99.90;;;;;;5054472;28;20049;-82
2022/11/24 12:39:09;;;;;;;4.97;1.27;;;12.10;99.90;;;;;;5071226;28;20489;-82
2022/11/24 12:42:00;;;;;;;6.68;1.35;;;12.30;99.90;;;;;;5063196;28;20041;-81
2022/11/24 12:45:11;;;;;;;6.20;1.70;;;12.40;99.90;;;;;;5041359;28;20071;-81
2022/11/24 12:48:08;;;;;;;3.83;1.10;;;12.20;99.90;;;;;;5036388;28;20071;-81
2022/11/24 12:50:37;;;;;;;8.40;1.88;;;12.10;99.90;;;;;;5051447;28;20041;-80
2022/11/24 12:53:33;;;;;;;7.40;1.58;;;12.00;99.90;;;;;;5050776;28;20048;-81
2022/11/24 12:56:06;;;;;;;6.85;1.08;;;11.80;99.90;;;;;;5008017;28;20038;-81
2022/11/24 12:58:39;;;;;;;4.07;1.15;;;11.70;99.90;;;;;;5017508;28;20037;-80
2022/11/24 13:01:17;;;;;;;6.30;1.23;;;11.60;99.90;;;;;;5033148;28;20045;-80
2022/11/24 13:04:11;;;;;;;3.72;1.05;;;11.50;99.90;;;;;;5013999;28;20092;-81
2022/11/24 13:06:45;;;;;;;5.10;1.05;;;11.60;99.90;;;;;;5030467;28;20050;-85
2022/11/24 13:09:15;;;;;;;8.50;1.52;;;11.80;99.90;;;;;;5014038;28;20046;-85
2022/11/24 13:11:42;;;;;;;6.32;1.70;;;12.00;99.90;;;;;;5038281;28;20052;-85
2022/11/24 13:14:16;;;;;;;5.57;1.50;;;12.20;99.90;;;;;;5047694;28;20517;-85